Time;durP1;ratioP1;P1;durP2;ratioP2;P2;SDS_P1;SDS_P2;PMS_P1;PMS_P2;Temp;Humidity;BMP_temperature;BMP_pressure;BME280_temperature;BME280_humidity;BME280_pressure;Samples;Min_cycle;Max_cycle;Signal;HPM_P1;HPM_P2
2022/05/12 00:02:03;;;;;;;3.30;3.00;;;19.20;99.90;;;;;;5117888;28;20468;-57
2022/05/12 00:04:32;;;;;;;4.03;3.77;;;19.20;99.90;;;;;;5117344;28;20434;-54
2022/05/12 00:07:00;;;;;;;4.00;3.60;;;19.00;99.90;;;;;;5117402;28;20670;-56
2022/05/12 00:09:27;;;;;;;4.93;3.70;;;19.00;99.90;;;;;;5117084;28;20404;-59
2022/05/12 00:11:54;;;;;;;3.70;3.40;;;18.90;99.90;;;;;;5117488;28;20454;-56
2022/05/12 00:14:22;;;;;;;3.97;3.57;;;18.90;99.90;;;;;;5117308;28;20411;-58
2022/05/12 00:16:50;;;;;;;6.30;4.40;;;18.70;99.90;;;;;;5117418;28;20475;-57
2022/05/12 00:19:17;;;;;;;4.60;4.13;;;18.70;99.90;;;;;;5117440;28;20656;-60
2022/05/12 00:21:45;;;;;;;4.57;4.10;;;18.70;99.90;;;;;;5116815;28;20428;-54
2022/05/12 00:24:16;;;;;;;3.47;3.17;;;18.70;99.90;;;;;;5097262;28;20425;-54
2022/05/12 00:26:43;;;;;;;4.00;3.60;;;18.70;99.90;;;;;;5111039;28;20642;-57
2022/05/12 00:29:11;;;;;;;3.60;3.30;;;18.80;99.90;;;;;;5117370;28;20651;-57
2022/05/12 00:31:41;;;;;;;3.63;3.33;;;18.70;99.90;;;;;;5116795;28;20450;-53
2022/05/12 00:34:10;;;;;;;3.53;3.33;;;18.70;99.90;;;;;;5116711;28;20436;-54
2022/05/12 00:36:37;;;;;;;5.63;4.47;;;18.70;99.90;;;;;;5117275;28;20475;-56
2022/05/12 00:39:05;;;;;;;4.03;3.70;;;18.80;99.90;;;;;;5118579;28;20454;-56
2022/05/12 00:41:33;;;;;;;5.10;4.20;;;18.80;99.90;;;;;;5118122;28;20483;-55
2022/05/12 00:44:05;;;;;;;4.20;3.80;;;18.80;99.90;;;;;;5117359;28;20408;-55
2022/05/12 00:46:36;;;;;;;5.70;3.93;;;18.70;99.90;;;;;;5117165;28;20434;-56
2022/05/12 00:49:28;;;;;;;3.80;3.50;;;18.60;99.90;;;;;;5117185;28;20625;-57
2022/05/12 00:52:16;;;;;;;5.17;3.93;;;18.60;99.90;;;;;;5117058;28;20520;-57
2022/05/12 00:54:46;;;;;;;5.43;4.00;;;18.60;99.90;;;;;;5117019;28;20460;-55
2022/05/12 00:57:20;;;;;;;4.17;3.80;;;18.50;99.90;;;;;;5116982;28;20525;-53
2022/05/12 00:59:48;;;;;;;3.90;3.27;;;18.50;99.90;;;;;;5116961;28;20437;-54
2022/05/12 01:02:18;;;;;;;3.83;3.57;;;18.50;99.90;;;;;;5116904;28;20453;-54
2022/05/12 01:04:50;;;;;;;5.67;3.90;;;18.60;99.90;;;;;;5116470;28;20542;-54
2022/05/12 01:07:17;;;;;;;3.90;3.60;;;18.70;99.90;;;;;;5116920;28;20437;-55
2022/05/12 01:09:44;;;;;;;4.17;3.77;;;18.70;99.90;;;;;;5116729;28;20472;-57
2022/05/12 01:12:12;;;;;;;5.43;3.97;;;18.60;99.90;;;;;;5116037;28;20429;-56
2022/05/12 01:14:39;;;;;;;3.77;3.47;;;18.70;99.90;;;;;;5116303;28;20462;-55
2022/05/12 01:17:08;;;;;;;7.20;4.00;;;18.60;99.90;;;;;;5116596;28;20437;-58
2022/05/12 01:19:38;;;;;;;4.80;4.40;;;18.50;99.90;;;;;;5116673;28;20442;-57
2022/05/12 01:22:09;;;;;;;3.57;3.30;;;18.40;99.90;;;;;;5116502;28;20420;-58
2022/05/12 01:24:42;;;;;;;3.70;3.40;;;18.40;99.90;;;;;;5116620;28;20507;-53
2022/05/12 01:27:19;;;;;;;3.87;3.57;;;18.40;99.90;;;;;;5116915;28;20412;-58
2022/05/12 01:29:52;;;;;;;4.77;4.47;;;18.40;99.90;;;;;;5121003;28;20412;-51
2022/05/12 01:32:23;;;;;;;3.10;2.90;;;18.40;99.90;;;;;;5120677;28;20688;-56
2022/05/12 01:34:52;;;;;;;4.23;3.93;;;18.40;99.90;;;;;;5120410;28;20784;-56
2022/05/12 01:37:21;;;;;;;3.40;3.20;;;18.40;99.90;;;;;;5120399;28;20472;-54
2022/05/12 01:39:49;;;;;;;4.80;3.97;;;18.40;99.90;;;;;;5120583;28;20426;-53
2022/05/12 01:42:17;;;;;;;4.27;3.87;;;18.40;99.90;;;;;;5120828;28;20458;-56
2022/05/12 01:44:44;;;;;;;3.97;3.67;;;18.30;99.90;;;;;;5120799;28;20418;-56
2022/05/12 01:47:13;;;;;;;6.57;4.00;;;18.40;99.90;;;;;;5120619;28;20442;-55
2022/05/12 01:49:40;;;;;;;3.73;3.43;;;18.40;99.90;;;;;;5119709;28;20777;-56
2022/05/12 01:52:10;;;;;;;3.93;3.53;;;18.40;99.90;;;;;;5120352;28;20462;-55
2022/05/12 01:54:37;;;;;;;3.43;3.10;;;18.30;99.90;;;;;;5120934;28;20504;-56
2022/05/12 01:57:04;;;;;;;3.67;3.37;;;18.30;99.90;;;;;;5120823;28;20448;-56
2022/05/12 01:59:32;;;;;;;5.00;3.53;;;18.40;99.90;;;;;;5120400;28;20415;-57
2022/05/12 02:01:59;;;;;;;4.33;3.97;;;18.30;99.90;;;;;;5120936;28;20432;-58
2022/05/12 02:04:27;;;;;;;4.77;4.40;;;18.40;99.90;;;;;;5120703;28;20479;-54
2022/05/12 02:06:54;;;;;;;4.50;4.10;;;18.40;99.90;;;;;;5120090;28;20778;-53
2022/05/12 02:09:21;;;;;;;3.53;3.23;;;18.30;99.90;;;;;;5119938;28;20444;-57
2022/05/12 02:11:49;;;;;;;4.57;3.63;;;18.30;99.90;;;;;;5119547;28;20439;-56
2022/05/12 02:14:16;;;;;;;3.90;3.60;;;18.30;99.90;;;;;;5119601;28;20412;-55
2022/05/12 02:16:43;;;;;;;4.40;3.57;;;18.20;99.90;;;;;;5119504;28;20447;-56
2022/05/12 02:19:11;;;;;;;4.60;4.13;;;18.30;99.90;;;;;;5119644;28;20432;-55
2022/05/12 02:21:38;;;;;;;7.80;3.87;;;18.30;99.90;;;;;;5119384;28;20812;-56
2022/05/12 02:24:06;;;;;;;11.77;4.60;;;18.30;99.90;;;;;;5119740;28;20434;-54
2022/05/12 02:26:33;;;;;;;3.77;3.47;;;18.20;99.90;;;;;;5119507;28;20440;-55
2022/05/12 02:29:02;;;;;;;3.80;3.50;;;18.20;99.90;;;;;;5119430;28;20410;-57
2022/05/12 02:31:29;;;;;;;4.67;3.47;;;18.20;99.90;;;;;;5119216;28;20463;-53
2022/05/12 02:33:57;;;;;;;4.97;4.53;;;18.30;99.90;;;;;;5119689;28;20415;-53
2022/05/12 02:36:24;;;;;;;3.30;3.10;;;18.40;99.90;;;;;;5119264;28;20656;-54
2022/05/12 02:38:52;;;;;;;3.43;3.20;;;18.60;99.90;;;;;;5119336;28;20411;-56
2022/05/12 02:41:19;;;;;;;3.77;3.37;;;18.70;99.90;;;;;;5118734;27;20528;-53
2022/05/12 02:43:46;;;;;;;5.10;3.77;;;18.90;99.90;;;;;;5119474;28;20653;-53
2022/05/12 02:46:14;;;;;;;9.73;3.17;;;19.00;99.90;;;;;;5119241;28;20540;-52
2022/05/12 02:48:45;;;;;;;3.67;3.27;;;19.00;99.90;;;;;;5119816;28;20750;-53
2022/05/12 02:51:13;;;;;;;3.60;3.40;;;19.00;99.90;;;;;;5119042;28;20472;-54
2022/05/12 02:53:41;;;;;;;5.70;4.17;;;19.10;99.90;;;;;;5119246;28;20605;-53
2022/05/12 02:56:09;;;;;;;4.27;3.87;;;19.20;99.90;;;;;;5119307;28;20476;-55
2022/05/12 02:58:37;;;;;;;3.40;3.10;;;19.30;99.90;;;;;;5118662;28;21048;-52
2022/05/12 03:01:08;;;;;;;5.57;3.80;;;19.30;99.90;;;;;;5119265;28;20450;-54
2022/05/12 03:03:37;;;;;;;3.90;3.60;;;19.30;99.90;;;;;;5118681;28;20419;-55
2022/05/12 03:06:04;;;;;;;3.90;3.50;;;19.40;99.90;;;;;;5119259;28;20419;-55
2022/05/12 03:08:32;;;;;;;4.03;3.63;;;19.40;99.90;;;;;;5118498;28;20739;-56
2022/05/12 03:10:59;;;;;;;4.97;3.33;;;19.40;99.90;;;;;;5118934;28;20660;-54
2022/05/12 03:13:26;;;;;;;4.60;4.20;;;19.40;99.90;;;;;;5118218;28;20799;-58
2022/05/12 03:15:54;;;;;;;4.40;4.00;;;19.50;99.90;;;;;;5118852;28;20563;-59
2022/05/12 03:18:22;;;;;;;3.80;3.40;;;19.50;99.90;;;;;;5118544;28;20472;-57
2022/05/12 03:20:49;;;;;;;4.20;3.80;;;19.60;99.90;;;;;;5116791;28;20495;-56
2022/05/12 03:23:23;;;;;;;5.50;3.67;;;19.60;99.90;;;;;;5118490;28;20477;-58
2022/05/12 03:25:52;;;;;;;4.13;3.73;;;19.60;99.90;;;;;;5118352;28;20413;-57
2022/05/12 03:28:22;;;;;;;4.30;3.90;;;19.50;99.90;;;;;;5118462;28;20461;-57
2022/05/12 03:30:50;;;;;;;3.73;3.20;;;19.60;99.90;;;;;;5118207;28;20480;-55
2022/05/12 03:33:18;;;;;;;4.33;4.03;;;19.60;99.90;;;;;;5118084;28;20576;-57
2022/05/12 03:35:45;;;;;;;3.70;3.40;;;19.60;99.90;;;;;;5105668;28;20446;-55
2022/05/12 03:38:14;;;;;;;4.10;3.63;;;19.60;99.90;;;;;;5104728;28;20469;-58
2022/05/12 03:40:41;;;;;;;4.10;3.70;;;19.50;99.90;;;;;;5098050;28;20409;-57
2022/05/12 03:43:09;;;;;;;4.20;3.80;;;19.50;99.90;;;;;;5098034;28;20777;-57
2022/05/12 03:45:36;;;;;;;5.53;3.60;;;19.60;99.90;;;;;;5098447;28;20413;-55
2022/05/12 03:48:06;;;;;;;10.07;4.03;;;19.70;99.90;;;;;;5097761;28;20436;-58
2022/05/12 03:50:33;;;;;;;5.60;4.33;;;19.70;99.90;;;;;;5097362;28;20457;-56
2022/05/12 03:53:00;;;;;;;4.63;3.70;;;19.80;99.90;;;;;;5097555;28;20445;-57
2022/05/12 03:55:29;;;;;;;4.93;3.30;;;19.80;99.90;;;;;;5104033;28;20429;-55
2022/05/12 03:57:56;;;;;;;4.17;3.87;;;19.80;99.90;;;;;;5103502;27;20854;-56
2022/05/12 04:00:29;;;;;;;4.10;3.70;;;19.80;99.90;;;;;;5096907;28;20431;-57
2022/05/12 04:02:56;;;;;;;5.70;4.17;;;19.80;99.90;;;;;;5097445;28;20538;-58
2022/05/12 04:05:24;;;;;;;4.30;3.90;;;20.00;99.90;;;;;;5096782;28;20465;-54
2022/05/12 04:07:51;;;;;;;4.80;4.40;;;20.10;99.90;;;;;;5097571;28;20534;-53
2022/05/12 04:10:21;;;;;;;5.87;3.90;;;20.20;99.90;;;;;;5096284;28;20526;-55
2022/05/12 04:12:48;;;;;;;3.60;3.30;;;20.20;99.90;;;;;;5097189;28;20434;-54
2022/05/12 04:15:18;;;;;;;3.63;3.33;;;20.30;99.90;;;;;;5097307;28;20440;-57
2022/05/12 04:17:58;;;;;;;5.13;4.73;;;20.50;99.90;;;;;;5096889;28;20503;-57
2022/05/12 04:20:26;;;;;;;4.77;3.23;;;20.70;99.90;;;;;;5096875;28;20669;-54
2022/05/12 04:22:54;;;;;;;3.80;3.50;;;21.00;99.90;;;;;;5104421;28;20522;-57
2022/05/12 04:25:22;;;;;;;4.93;4.30;;;21.20;99.90;;;;;;5108997;28;20415;-56
2022/05/12 04:27:49;;;;;;;3.43;3.13;;;21.50;99.90;;;;;;5117033;28;20787;-55
2022/05/12 04:30:19;;;;;;;3.37;3.13;;;21.70;99.90;;;;;;5116758;28;20440;-55
2022/05/12 04:32:46;;;;;;;5.67;3.67;;;21.70;99.90;;;;;;5116782;28;20857;-54
2022/05/12 04:35:14;;;;;;;3.33;3.03;;;21.80;99.90;;;;;;5100777;28;20453;-55
2022/05/12 04:37:46;;;;;;;5.37;4.50;;;21.80;99.90;;;;;;5096259;28;20562;-56
2022/05/12 04:40:29;;;;;;;7.20;4.70;;;21.70;99.90;;;;;;5089880;28;20766;-54
2022/05/12 04:42:59;;;;;;;5.67;4.80;;;21.60;99.90;;;;;;5095287;28;20737;-57
2022/05/12 04:45:31;;;;;;;4.17;3.70;;;21.60;99.90;;;;;;5102658;28;20717;-52
2022/05/12 04:47:58;;;;;;;6.03;4.90;;;21.60;99.90;;;;;;5100363;28;20417;-57
2022/05/12 04:50:32;;;;;;;4.47;4.00;;;22.00;99.90;;;;;;5094983;28;20778;-59
2022/05/12 04:53:01;;;;;;;6.33;3.93;;;22.10;99.90;;;;;;5094027;28;20466;-57
2022/05/12 04:55:29;;;;;;;5.13;3.60;;;22.40;99.90;;;;;;5097958;28;20631;-57
2022/05/12 04:57:59;;;;;;;4.30;3.30;;;22.60;99.90;;;;;;5099710;28;20541;-55
2022/05/12 05:00:33;;;;;;;8.00;4.07;;;22.80;99.90;;;;;;5096191;28;20451;-56
2022/05/12 05:03:00;;;;;;;3.90;3.50;;;23.00;99.90;;;;;;5106663;28;20756;-55
2022/05/12 05:05:28;;;;;;;5.47;3.50;;;23.40;99.90;;;;;;5112442;28;20795;-53
2022/05/12 05:07:55;;;;;;;4.13;3.63;;;23.80;99.90;;;;;;5117045;28;20710;-57
2022/05/12 05:10:23;;;;;;;5.60;3.90;;;24.20;99.90;;;;;;5111915;28;20448;-53
2022/05/12 05:12:50;;;;;;;3.70;2.73;;;24.40;99.90;;;;;;5120879;28;20880;-54
2022/05/12 05:15:18;;;;;;;4.90;2.60;;;24.30;99.90;;;;;;5121084;28;20605;-56
2022/05/12 05:17:45;;;;;;;3.60;3.30;;;24.10;99.90;;;;;;5120823;28;20475;-53
2022/05/12 05:20:17;;;;;;;3.23;3.03;;;24.00;99.90;;;;;;5121530;28;20588;-52
2022/05/12 05:22:45;;;;;;;5.27;3.80;;;24.00;99.90;;;;;;5120828;28;20458;-54
2022/05/12 05:25:14;;;;;;;3.40;3.20;;;24.10;99.90;;;;;;5119206;28;20448;-57
2022/05/12 05:27:43;;;;;;;3.20;3.00;;;24.30;99.90;;;;;;5111868;28;20509;-56
2022/05/12 05:30:18;;;;;;;6.80;3.10;;;24.40;99.90;;;;;;5113268;28;20507;-54
2022/05/12 05:32:49;;;;;;;2.80;2.60;;;24.30;99.90;;;;;;5104691;28;20493;-59
2022/05/12 05:35:18;;;;;;;4.53;3.13;;;24.10;99.90;;;;;;5101957;28;20462;-54
2022/05/12 05:37:48;;;;;;;14.00;3.73;;;23.90;99.90;;;;;;5101270;28;20465;-56
2022/05/12 05:40:18;;;;;;;3.57;3.27;;;23.90;99.90;;;;;;5099207;28;20472;-56
2022/05/12 05:42:46;;;;;;;5.70;4.20;;;23.90;99.90;;;;;;5098691;28;20451;-59
2022/05/12 05:45:17;;;;;;;5.37;4.20;;;23.90;99.90;;;;;;5098615;28;20472;-58
2022/05/12 05:47:50;;;;;;;3.90;3.60;;;23.80;99.90;;;;;;5099808;28;20443;-54
2022/05/12 05:50:29;;;;;;;5.43;3.40;;;23.80;99.90;;;;;;5099290;28;20458;-54
2022/05/12 05:55:42;;;;;;;3.43;3.13;;;23.80;99.90;;;;;;5098289;28;20570;-57
2022/05/12 05:58:10;;;;;;;3.93;3.63;;;24.00;99.90;;;;;;5099636;28;20470;-55
2022/05/12 06:00:39;;;;;;;3.57;3.27;;;24.10;99.90;;;;;;5099006;28;20461;-53
2022/05/12 06:03:07;;;;;;;14.60;3.67;;;24.20;99.90;;;;;;5099473;28;20484;-55
2022/05/12 06:05:41;;;;;;;12.33;3.60;;;24.40;99.90;;;;;;5099060;28;20435;-57
2022/05/12 06:08:11;;;;;;;4.13;3.47;;;24.50;99.90;;;;;;5100207;28;20459;-56
2022/05/12 06:10:39;;;;;;;6.40;3.50;;;24.70;99.90;;;;;;5099552;28;20441;-55
2022/05/12 06:13:06;;;;;;;4.93;4.17;;;24.80;99.90;;;;;;5098735;28;20445;-55
2022/05/12 06:15:34;;;;;;;3.93;3.37;;;24.90;99.90;;;;;;5099175;28;20445;-58
2022/05/12 06:18:13;;;;;;;4.03;3.60;;;25.10;99.90;;;;;;5099350;28;20484;-55
2022/05/12 06:20:43;;;;;;;4.07;3.70;;;25.20;99.90;;;;;;5098912;28;20550;-56
2022/05/12 06:23:12;;;;;;;3.40;3.20;;;25.30;99.90;;;;;;5098538;28;20485;-58
2022/05/12 06:25:39;;;;;;;17.20;4.27;;;25.60;99.90;;;;;;5099822;28;20650;-54
2022/05/12 06:28:07;;;;;;;4.37;3.17;;;25.90;99.90;;;;;;5099343;28;20508;-55
2022/05/12 06:30:39;;;;;;;3.97;3.10;;;26.20;99.90;;;;;;5098884;28;20434;-53
2022/05/12 06:33:07;;;;;;;5.50;3.70;;;26.90;99.90;;;;;;5099174;28;20456;-56
2022/05/12 06:35:34;;;;;;;5.10;3.07;;;27.30;99.90;;;;;;5098863;28;20757;-55
2022/05/12 06:38:02;;;;;;;11.90;3.83;;;27.80;99.90;;;;;;5098706;28;20488;-59
2022/05/12 06:40:29;;;;;;;6.70;3.10;;;28.00;99.90;;;;;;5098920;28;20823;-55
2022/05/12 06:42:58;;;;;;;5.50;3.90;;;28.20;99.60;;;;;;5099063;28;20442;-55
2022/05/12 06:45:25;;;;;;;8.70;3.13;;;28.20;99.00;;;;;;5098159;28;20435;-59
2022/05/12 06:47:53;;;;;;;2.70;2.40;;;28.60;98.60;;;;;;5099166;28;20427;-54
2022/05/12 06:50:25;;;;;;;5.97;3.20;;;29.20;96.90;;;;;;5098733;28;20507;-58
2022/05/12 06:52:53;;;;;;;4.00;2.60;;;29.40;95.00;;;;;;5099095;28;20523;-55
2022/05/12 06:55:22;;;;;;;3.53;2.30;;;29.60;93.80;;;;;;5098651;28;20427;-52
2022/05/12 06:57:50;;;;;;;10.83;4.07;;;29.20;92.60;;;;;;5098361;28;20473;-60
2022/05/12 07:00:18;;;;;;;6.90;2.90;;;28.30;93.30;;;;;;5098265;28;20431;-56
2022/05/12 07:02:47;;;;;;;9.17;2.97;;;27.60;93.40;;;;;;5098468;28;20482;-51
2022/05/12 07:05:18;;;;;;;8.50;3.47;;;27.40;93.50;;;;;;5098242;28;20714;-55
2022/05/12 07:07:46;;;;;;;3.93;2.90;;;28.00;92.60;;;;;;5097021;28;20446;-53
2022/05/12 07:10:18;;;;;;;9.53;3.07;;;28.80;91.00;;;;;;5098537;28;20820;-57
2022/05/12 07:12:46;;;;;;;9.00;3.60;;;29.60;89.30;;;;;;5098144;28;20459;-56
2022/05/12 07:15:14;;;;;;;8.80;2.93;;;30.20;86.80;;;;;;5099274;28;20453;-56
2022/05/12 07:17:45;;;;;;;2.83;2.30;;;31.20;83.50;;;;;;5099185;28;20775;-60
2022/05/12 07:28:35;;;;;;;10.47;2.40;;;33.90;71.60;;;;;;5097678;28;20446;-56
2022/05/12 07:31:09;;;;;;;3.00;2.23;;;33.80;70.30;;;;;;5098001;28;20474;-56
2022/05/12 07:33:43;;;;;;;3.43;2.63;;;34.00;67.80;;;;;;5097554;28;20434;-58
2022/05/12 07:36:17;;;;;;;3.47;2.27;;;34.00;66.90;;;;;;5097902;28;20437;-58
2022/05/12 07:38:45;;;;;;;6.20;3.70;;;34.00;67.10;;;;;;5097412;28;20423;-54
2022/05/12 07:41:14;;;;;;;5.07;3.03;;;32.60;70.90;;;;;;5098015;28;20473;-56
2022/05/12 07:43:43;;;;;;;7.67;3.03;;;31.80;73.00;;;;;;5097039;28;20430;-57
2022/05/12 07:46:13;;;;;;;3.53;3.10;;;31.90;72.60;;;;;;5097694;28;20448;-55
2022/05/12 07:48:41;;;;;;;9.07;4.20;;;32.00;72.00;;;;;;5097265;28;20784;-56
2022/05/12 07:51:10;;;;;;;7.40;3.30;;;31.60;74.10;;;;;;5097334;28;20517;-56
2022/05/12 07:53:37;;;;;;;3.73;3.40;;;32.10;73.60;;;;;;5097330;28;20652;-55
2022/05/12 07:56:05;;;;;;;6.73;4.30;;;32.00;73.70;;;;;;5096938;28;20512;-56
2022/05/12 07:58:32;;;;;;;3.70;3.40;;;31.80;74.30;;;;;;5097051;28;20472;-57
2022/05/12 08:01:01;;;;;;;3.70;3.33;;;32.20;74.20;;;;;;5097151;28;20510;-57
2022/05/12 08:03:28;;;;;;;4.53;4.13;;;32.80;72.00;;;;;;5097237;28;20439;-54
2022/05/12 08:05:55;;;;;;;6.73;2.70;;;33.60;70.60;;;;;;5096505;28;20632;-54
2022/05/12 08:08:22;;;;;;;5.37;3.20;;;32.60;72.80;;;;;;5096552;28;20479;-57
2022/05/12 08:10:50;;;;;;;6.03;3.63;;;32.50;72.10;;;;;;5096713;28;20437;-56
2022/05/12 08:13:19;;;;;;;3.63;3.33;;;33.00;71.80;;;;;;5096968;28;20680;-55
2022/05/12 08:15:49;;;;;;;8.47;3.30;;;32.70;71.50;;;;;;5097151;28;20439;-57
2022/05/12 08:18:21;;;;;;;3.67;3.30;;;33.40;70.40;;;;;;5097449;28;20469;-52
2022/05/12 08:20:49;;;;;;;3.80;3.50;;;33.70;70.40;;;;;;5096619;28;20498;-56
2022/05/12 08:23:17;;;;;;;4.20;3.80;;;34.30;69.30;;;;;;5096708;28;20442;-56
2022/05/12 08:25:46;;;;;;;4.40;3.70;;;34.60;69.30;;;;;;5096939;28;20746;-55
2022/05/12 08:28:15;;;;;;;5.10;3.47;;;35.10;67.50;;;;;;5096610;28;20446;-54
2022/05/12 08:30:44;;;;;;;7.27;3.50;;;34.20;67.50;;;;;;5096416;28;20935;-57
2022/05/12 08:33:12;;;;;;;3.33;3.03;;;32.40;68.40;;;;;;5096252;28;20506;-54
2022/05/12 08:35:42;;;;;;;2.63;2.43;;;31.90;69.90;;;;;;5096635;28;20515;-54
2022/05/12 08:38:11;;;;;;;4.40;2.70;;;32.90;68.40;;;;;;5096330;28;20484;-55
2022/05/12 08:41:18;;;;;;;3.00;2.60;;;32.90;68.00;;;;;;5095950;28;20476;-55
2022/05/12 08:43:45;;;;;;;14.40;3.43;;;32.70;68.20;;;;;;5061951;28;20436;-51
2022/05/12 08:46:19;;;;;;;4.43;2.50;;;32.50;67.90;;;;;;5096592;28;20438;-58
2022/05/12 08:48:48;;;;;;;9.13;3.63;;;32.50;67.60;;;;;;5096336;28;20444;-59
2022/05/12 08:51:19;;;;;;;4.50;2.80;;;32.00;69.30;;;;;;5096924;28;20461;-55
2022/05/12 08:53:57;;;;;;;3.33;2.90;;;31.90;69.00;;;;;;5096617;28;20546;-55
2022/05/12 08:56:26;;;;;;;3.13;2.37;;;30.10;72.60;;;;;;5098974;28;20431;-58
2022/05/12 08:58:56;;;;;;;4.30;2.43;;;28.30;77.10;;;;;;5044283;28;20477;-58
2022/05/12 09:01:45;;;;;;;5.07;2.70;;;27.00;80.30;;;;;;5099151;28;20455;-54
2022/05/12 09:04:30;;;;;;;2.50;2.30;;;28.00;78.40;;;;;;5099546;28;20423;-54
2022/05/12 09:07:16;;;;;;;3.50;2.10;;;29.40;75.70;;;;;;5098392;28;20485;-56
2022/05/12 09:10:01;;;;;;;6.33;3.43;;;30.70;73.10;;;;;;5097165;28;20431;-55
2022/05/12 09:12:32;;;;;;;6.20;2.83;;;31.00;72.00;;;;;;5096097;28;20829;-58
2022/05/12 09:15:09;;;;;;;8.73;3.23;;;30.40;72.40;;;;;;5096510;28;20436;-53
2022/05/12 09:17:58;;;;;;;6.20;2.73;;;31.00;71.80;;;;;;5095993;28;20476;-54
2022/05/12 09:20:29;;;;;;;2.60;2.00;;;31.90;69.90;;;;;;5096292;28;20439;-57
2022/05/12 09:22:59;;;;;;;1.97;1.83;;;31.80;69.80;;;;;;5096093;28;20444;-57
2022/05/12 09:25:36;;;;;;;2.83;2.63;;;30.50;71.30;;;;;;5096206;28;20455;-56
2022/05/12 09:28:19;;;;;;;3.50;2.40;;;28.90;76.20;;;;;;5096153;28;20761;-59
2022/05/12 09:30:48;;;;;;;2.40;2.00;;;27.60;78.80;;;;;;5096091;28;20465;-54
2022/05/12 09:33:34;;;;;;;5.47;3.07;;;26.80;81.60;;;;;;5095923;28;20437;-58
2022/05/12 09:36:08;;;;;;;7.73;3.10;;;26.40;81.90;;;;;;5096505;28;20452;-52
2022/05/12 09:38:41;;;;;;;3.20;2.73;;;26.00;82.70;;;;;;5095420;28;20857;-55
2022/05/12 09:41:24;;;;;;;2.23;1.60;;;26.10;82.40;;;;;;5096046;28;20458;-54
2022/05/12 09:43:53;;;;;;;3.07;2.37;;;25.90;81.70;;;;;;5095699;28;20429;-54
2022/05/12 09:46:20;;;;;;;7.30;2.20;;;25.60;81.40;;;;;;5096093;28;20434;-56
2022/05/12 09:48:51;;;;;;;2.50;2.30;;;25.50;81.10;;;;;;5097129;28;20427;-53
2022/05/12 09:51:34;;;;;;;7.57;2.70;;;25.40;82.10;;;;;;5098568;28;20532;-56
2022/05/12 09:54:19;;;;;;;6.00;2.40;;;25.50;83.00;;;;;;5099645;28;20512;-56
2022/05/12 09:57:16;;;;;;;2.83;1.43;;;25.80;82.60;;;;;;5099442;28;20505;-56
2022/05/12 09:59:53;;;;;;;3.40;1.17;;;25.80;81.90;;;;;;5099728;28;20445;-56
2022/05/12 10:08:26;;;;;;;1.60;1.50;;;24.80;81.00;;;;;;5099558;28;20500;-52
2022/05/12 10:10:59;;;;;;;20.87;2.10;;;24.60;80.50;;;;;;5088752;28;20463;-57
2022/05/12 10:13:40;;;;;;;4.80;1.40;;;24.50;81.90;;;;;;5099906;28;20876;-55
2022/05/12 10:16:09;;;;;;;6.43;1.30;;;24.60;82.50;;;;;;5099604;28;20610;-54
2022/05/12 10:18:45;;;;;;;9.50;2.63;;;24.60;81.30;;;;;;5099434;28;20607;-57
2022/05/12 10:21:15;;;;;;;2.20;1.10;;;24.60;80.90;;;;;;5098998;28;20459;-53
2022/05/12 10:24:03;;;;;;;5.50;2.03;;;24.40;81.80;;;;;;5098713;28;20462;-53
2022/05/12 10:26:42;;;;;;;2.00;1.70;;;24.40;82.90;;;;;;5098795;28;20715;-50
2022/05/12 10:29:31;;;;;;;5.30;2.23;;;24.70;83.30;;;;;;5099101;28;20413;-55
2022/05/12 10:32:13;;;;;;;5.53;2.00;;;24.80;83.10;;;;;;5098428;28;20525;-57
2022/05/12 10:35:06;;;;;;;2.20;1.40;;;25.00;83.10;;;;;;5098689;28;20510;-56
2022/05/12 10:37:39;;;;;;;2.97;1.83;;;25.50;81.80;;;;;;5098733;28;20481;-54
2022/05/12 10:40:19;;;;;;;1.43;1.10;;;25.40;81.00;;;;;;5098646;28;20506;-54
2022/05/12 10:43:02;;;;;;;2.63;2.20;;;25.10;82.30;;;;;;5098155;28;20462;-58
2022/05/12 10:45:34;;;;;;;1.87;1.63;;;24.50;83.40;;;;;;5098800;28;20439;-57
2022/05/12 10:48:30;;;;;;;3.43;1.50;;;24.10;83.60;;;;;;5098577;28;20453;-56
2022/05/12 10:51:06;;;;;;;4.20;1.43;;;23.80;84.60;;;;;;5098350;28;20455;-56
2022/05/12 10:53:48;;;;;;;2.50;1.37;;;23.60;83.70;;;;;;5097939;28;20739;-53
2022/05/12 10:57:00;;;;;;;2.80;1.43;;;23.80;83.10;;;;;;5098866;28;20517;-57
2022/05/12 10:59:41;;;;;;;1.50;1.23;;;23.90;81.50;;;;;;5054983;28;20752;-55
2022/05/12 11:02:33;;;;;;;2.13;1.40;;;23.80;81.00;;;;;;5055581;28;20520;-52
2022/05/12 11:05:24;;;;;;;2.33;1.43;;;23.50;80.90;;;;;;5089645;28;20449;-53
2022/05/12 11:08:14;;;;;;;1.20;1.10;;;23.70;81.40;;;;;;5098262;28;20646;-54
2022/05/12 11:10:51;;;;;;;5.23;1.23;;;24.10;80.70;;;;;;5098199;28;20915;-51
2022/05/12 11:13:25;;;;;;;3.40;2.03;;;24.50;79.80;;;;;;5098405;28;20505;-57
2022/05/12 11:16:04;;;;;;;5.27;1.80;;;24.60;78.80;;;;;;5097844;28;20514;-52
2022/05/12 11:18:39;;;;;;;1.27;1.10;;;24.70;77.80;;;;;;5098042;28;20493;-56
2022/05/12 11:21:25;;;;;;;5.50;1.50;;;24.80;77.40;;;;;;5097668;28;20474;-53
2022/05/12 11:24:10;;;;;;;3.33;1.63;;;24.70;77.50;;;;;;5098425;28;20684;-54
2022/05/12 11:27:21;;;;;;;1.87;1.47;;;24.70;76.60;;;;;;5097379;28;20435;-55
2022/05/12 11:30:17;;;;;;;2.70;1.40;;;24.80;76.00;;;;;;5096500;28;20481;-55
2022/05/12 11:33:19;;;;;;;2.70;1.23;;;24.90;77.00;;;;;;5097764;28;20820;-55
2022/05/12 11:35:50;;;;;;;1.87;1.37;;;24.60;75.90;;;;;;5098510;28;20667;-55
2022/05/12 11:38:43;;;;;;;8.30;2.07;;;24.40;76.20;;;;;;5098356;28;20478;-51
2022/05/12 11:41:30;;;;;;;3.00;1.20;;;24.20;76.80;;;;;;5097415;28;20493;-53
2022/05/12 11:44:29;;;;;;;3.17;2.13;;;24.20;76.00;;;;;;5097912;28;20430;-53
2022/05/12 11:47:15;;;;;;;2.70;1.10;;;24.30;76.80;;;;;;5097763;28;20462;-53
2022/05/12 11:50:24;;;;;;;5.93;1.50;;;24.40;75.40;;;;;;5098045;28;20979;-57
2022/05/12 11:53:00;;;;;;;5.70;1.73;;;24.20;75.10;;;;;;5098036;28;20462;-57
2022/05/12 11:55:54;;;;;;;1.73;1.40;;;24.10;74.20;;;;;;5097576;28;20438;-52
2022/05/12 11:58:44;;;;;;;3.60;1.83;;;23.90;72.70;;;;;;5097491;28;20473;-54
2022/05/12 12:01:21;;;;;;;3.87;1.60;;;23.70;74.60;;;;;;5097693;28;20521;-54
2022/05/12 12:03:59;;;;;;;5.90;1.10;;;23.90;72.60;;;;;;5097474;28;20435;-55
2022/05/12 12:06:45;;;;;;;3.00;1.73;;;23.70;72.10;;;;;;5097835;28;20441;-55
2022/05/12 12:09:37;;;;;;;4.10;1.30;;;23.80;74.00;;;;;;5097448;28;20441;-52
2022/05/12 12:12:07;;;;;;;6.93;1.07;;;23.80;72.10;;;;;;5097375;28;20511;-58
2022/05/12 12:14:46;;;;;;;1.97;1.17;;;23.80;71.80;;;;;;5096598;28;20449;-55
2022/05/12 12:17:26;;;;;;;4.20;1.60;;;23.50;70.80;;;;;;5097260;28;20422;-53
2022/05/12 12:19:56;;;;;;;2.53;1.17;;;23.50;70.60;;;;;;5096538;28;20467;-54
2022/05/12 12:22:38;;;;;;;9.60;2.93;;;23.40;71.50;;;;;;5096833;28;20490;-56
2022/05/12 12:25:26;;;;;;;7.40;1.67;;;23.30;70.90;;;;;;5097027;28;20649;-57
2022/05/12 12:27:53;;;;;;;2.80;1.20;;;23.50;70.50;;;;;;5097178;28;20526;-56
2022/05/12 12:30:57;;;;;;;6.50;1.73;;;23.40;69.70;;;;;;5096985;28;20487;-54
2022/05/12 12:33:25;;;;;;;2.30;1.63;;;23.40;69.50;;;;;;5097152;28;20469;-55
2022/05/12 12:35:56;;;;;;;1.37;1.27;;;23.40;70.20;;;;;;5097273;28;20458;-51
2022/05/12 12:38:57;;;;;;;4.87;1.17;;;23.30;69.00;;;;;;5096840;28;20542;-56
2022/05/12 12:41:30;;;;;;;3.17;1.80;;;23.30;70.00;;;;;;5096522;28;20464;-53
2022/05/12 12:44:09;;;;;;;1.60;1.50;;;23.50;68.10;;;;;;5096991;28;20587;-52
2022/05/12 12:46:49;;;;;;;0.90;0.90;;;23.50;69.40;;;;;;5096513;28;20445;-53
2022/05/12 12:49:29;;;;;;;1.87;1.07;;;23.40;65.90;;;;;;5096320;28;20775;-55
2022/05/12 12:52:03;;;;;;;9.70;1.63;;;23.30;65.70;;;;;;5096562;28;20538;-54
2022/05/12 12:57:25;;;;;;;1.13;1.03;;;23.20;61.40;;;;;;5096307;28;20527;-54
2022/05/12 13:00:00;;;;;;;7.43;1.13;;;23.10;62.40;;;;;;5096513;28;20485;-54
2022/05/12 13:02:35;;;;;;;5.23;1.30;;;23.20;63.10;;;;;;5096111;28;20526;-56
2022/05/12 13:05:07;;;;;;;3.67;1.20;;;23.10;63.60;;;;;;5096971;28;20457;-55
2022/05/12 13:07:37;;;;;;;5.03;1.47;;;23.10;63.10;;;;;;5096576;28;20431;-54
2022/05/12 13:10:09;;;;;;;1.83;1.20;;;23.10;62.00;;;;;;5095213;28;20757;-51
2022/05/12 13:12:37;;;;;;;2.83;1.37;;;23.10;60.60;;;;;;5096399;28;20443;-57
2022/05/12 13:15:18;;;;;;;1.90;1.20;;;23.20;61.10;;;;;;5096443;28;20458;-56
2022/05/12 13:17:49;;;;;;;2.10;0.90;;;23.30;61.70;;;;;;5110785;28;20438;-55
2022/05/12 13:20:32;;;;;;;1.03;0.90;;;23.40;61.90;;;;;;5089842;28;20464;-55
2022/05/12 13:23:09;;;;;;;3.33;1.20;;;23.40;61.80;;;;;;5081820;28;20495;-53
2022/05/12 13:25:41;;;;;;;1.60;1.10;;;23.30;59.90;;;;;;5085596;28;20430;-55
2022/05/12 13:28:19;;;;;;;1.70;1.07;;;23.30;59.90;;;;;;5091044;28;20450;-57
2022/05/12 13:30:49;;;;;;;3.23;1.33;;;23.20;60.50;;;;;;5084689;28;20443;-56
2022/05/12 13:33:25;;;;;;;6.23;1.57;;;23.20;59.50;;;;;;5089113;28;20635;-55
2022/05/12 13:35:54;;;;;;;1.50;1.23;;;23.10;58.70;;;;;;5084042;28;20447;-54